createdAt,value
2018-06-30T00:01:56.778Z,18.00
2018-06-30T00:04:26.226Z,18.10
2018-06-30T00:06:55.672Z,18.10
2018-06-30T00:09:24.734Z,18.20
2018-06-30T00:11:54.988Z,18.30
2018-06-30T00:14:24.311Z,18.40
2018-06-30T00:16:53.607Z,18.50
2018-06-30T00:19:22.909Z,18.50
2018-06-30T00:21:52.591Z,18.70
2018-06-30T00:24:21.982Z,18.80
2018-06-30T00:26:52.519Z,18.70
2018-06-30T00:29:23.199Z,18.70
2018-06-30T00:31:52.967Z,18.60
2018-06-30T00:34:24.501Z,18.70
2018-06-30T00:36:53.901Z,18.70
2018-06-30T00:39:23.439Z,18.70
2018-06-30T00:41:52.786Z,18.70
2018-06-30T00:44:22.488Z,18.70
2018-06-30T00:46:52.067Z,18.70
2018-06-30T00:49:22.784Z,18.60
2018-06-30T00:51:52.464Z,18.70
2018-06-30T00:54:22.212Z,18.60
2018-06-30T00:56:51.602Z,18.60
2018-06-30T00:59:21.415Z,18.60
2018-06-30T01:01:50.856Z,18.50
2018-06-30T01:04:21.245Z,18.50
2018-06-30T01:06:50.699Z,18.50
2018-06-30T01:09:20.332Z,18.50
2018-06-30T01:11:49.872Z,18.50
2018-06-30T01:14:19.420Z,18.60
2018-06-30T01:16:48.779Z,18.60
2018-06-30T01:19:18.417Z,18.60
2018-06-30T01:21:48.202Z,18.70
2018-06-30T01:24:17.779Z,18.70
2018-06-30T01:26:48.528Z,18.70
2018-06-30T01:29:18.226Z,18.70
2018-06-30T01:31:51.441Z,18.60
2018-06-30T01:34:21.754Z,18.60
2018-06-30T01:36:52.807Z,18.60
2018-06-30T01:39:22.619Z,18.60
2018-06-30T01:41:53.351Z,18.60
2018-06-30T01:44:22.833Z,18.60
2018-06-30T01:46:52.204Z,18.70
2018-06-30T01:49:21.558Z,18.70
2018-06-30T01:51:50.941Z,18.70
2018-06-30T01:54:20.670Z,18.70
2018-06-30T01:56:50.246Z,18.60
2018-06-30T01:59:19.811Z,18.60
2018-06-30T02:01:49.540Z,18.70
2018-06-30T02:04:19.018Z,18.70
2018-06-30T02:06:48.658Z,18.70
2018-06-30T02:09:18.841Z,18.80
2018-06-30T02:11:48.827Z,18.80
2018-06-30T02:14:18.562Z,18.80
2018-06-30T02:16:48.115Z,18.90
2018-06-30T02:19:18.938Z,19.00
2018-06-30T02:21:48.446Z,19.10
2018-06-30T02:24:18.964Z,19.10
2018-06-30T02:26:48.695Z,19.20
2018-06-30T02:29:18.074Z,19.10
2018-06-30T02:31:47.496Z,19.10
2018-06-30T02:34:17.080Z,19.00
2018-06-30T02:36:46.625Z,19.00
2018-06-30T02:39:16.254Z,18.90
2018-06-30T02:41:45.726Z,18.80
2018-06-30T02:44:15.134Z,18.80
2018-06-30T02:46:44.763Z,18.80
2018-06-30T02:49:14.444Z,18.70
2018-06-30T02:51:45.118Z,18.60
2018-06-30T02:54:15.295Z,18.60
2018-06-30T02:56:44.974Z,18.50
2018-06-30T02:59:14.504Z,18.50
2018-06-30T03:01:43.947Z,18.50
2018-06-30T03:04:13.435Z,18.40
2018-06-30T03:06:42.809Z,18.40
2018-06-30T03:09:12.089Z,18.40
2018-06-30T03:11:41.785Z,18.40
2018-06-30T03:14:11.360Z,18.40
2018-06-30T03:16:40.893Z,18.40
2018-06-30T03:19:10.385Z,18.40
2018-06-30T03:21:40.054Z,18.40
2018-06-30T03:24:09.381Z,18.50
2018-06-30T03:26:39.447Z,18.40
2018-06-30T03:29:09.496Z,18.40
2018-06-30T03:31:39.745Z,18.40
2018-06-30T03:34:09.130Z,18.40
2018-06-30T03:36:38.904Z,18.40
2018-06-30T03:39:08.700Z,18.30
2018-06-30T03:41:38.370Z,18.30
2018-06-30T03:44:08.139Z,18.30
2018-06-30T03:46:37.780Z,18.20
2018-06-30T03:49:07.519Z,18.20
2018-06-30T03:51:37.197Z,18.10
2018-06-30T03:54:08.176Z,18.10
2018-06-30T03:56:38.073Z,18.00
2018-06-30T03:59:07.434Z,18.00
2018-06-30T04:01:36.866Z,18.00
2018-06-30T04:04:07.635Z,18.00
2018-06-30T04:06:37.988Z,18.00
2018-06-30T04:09:09.396Z,17.90
2018-06-30T04:11:39.380Z,17.90
2018-06-30T04:14:09.693Z,17.90
2018-06-30T04:16:39.817Z,17.90
2018-06-30T04:19:09.251Z,17.80
2018-06-30T04:21:38.639Z,17.80
2018-06-30T04:24:08.430Z,17.80
2018-06-30T04:26:37.932Z,17.70
2018-06-30T04:29:07.499Z,17.70
2018-06-30T04:31:37.056Z,17.70
2018-06-30T04:34:06.420Z,17.60
2018-06-30T04:36:35.326Z,17.60
2018-06-30T04:39:05.378Z,17.60
2018-06-30T04:41:35.164Z,17.60
2018-06-30T04:44:04.597Z,17.60
2018-06-30T04:46:34.326Z,17.60
2018-06-30T04:49:03.947Z,17.60
2018-06-30T04:51:33.681Z,17.50
2018-06-30T04:54:04.137Z,17.50
2018-06-30T04:56:33.608Z,17.50
2018-06-30T04:59:02.913Z,17.50
2018-06-30T05:01:32.457Z,17.50
2018-06-30T05:04:01.992Z,17.40
2018-06-30T05:06:32.811Z,17.40
2018-06-30T05:09:03.534Z,17.40
2018-06-30T05:11:33.185Z,17.40
2018-06-30T05:14:02.984Z,17.30
2018-06-30T05:16:33.884Z,17.30
2018-06-30T05:19:03.716Z,17.30
2018-06-30T05:21:34.166Z,17.20
2018-06-30T05:24:05.776Z,17.20
2018-06-30T05:26:36.512Z,17.10
2018-06-30T05:29:06.133Z,17.00
2018-06-30T05:31:36.772Z,16.90
2018-06-30T05:34:06.595Z,16.90
2018-06-30T05:36:36.245Z,16.90
2018-06-30T05:39:06.176Z,16.80
2018-06-30T05:41:35.465Z,16.70
2018-06-30T05:44:05.008Z,16.60
2018-06-30T05:46:35.313Z,16.60
2018-06-30T05:49:06.232Z,16.50
2018-06-30T05:51:35.533Z,16.50
2018-06-30T05:54:05.079Z,16.50
2018-06-30T05:56:35.068Z,16.40
2018-06-30T05:59:04.714Z,16.40
2018-06-30T06:01:35.245Z,16.30
2018-06-30T06:04:06.529Z,16.30
2018-06-30T06:06:36.364Z,16.30
2018-06-30T06:09:06.380Z,16.30
2018-06-30T06:11:35.984Z,16.30
2018-06-30T06:14:06.089Z,16.20
2018-06-30T06:16:35.554Z,16.20
2018-06-30T06:19:05.161Z,16.20
2018-06-30T06:21:34.745Z,16.10
2018-06-30T06:24:04.510Z,16.10
2018-06-30T06:26:35.036Z,16.10
2018-06-30T06:29:05.640Z,16.10
2018-06-30T06:31:37.480Z,16.00
2018-06-30T06:34:08.181Z,16.00
2018-06-30T06:36:38.948Z,16.00
2018-06-30T06:39:09.832Z,16.10
2018-06-30T06:41:40.300Z,16.00
2018-06-30T06:44:10.496Z,16.10
2018-06-30T06:46:40.085Z,16.10
2018-06-30T06:49:09.192Z,16.20
2018-06-30T06:51:38.705Z,16.20
2018-06-30T06:54:08.312Z,16.30
2018-06-30T06:56:39.720Z,16.20
2018-06-30T06:59:10.179Z,16.30
2018-06-30T07:01:39.860Z,16.30
2018-06-30T07:04:09.372Z,16.30
2018-06-30T07:06:38.715Z,16.30
2018-06-30T07:09:08.653Z,16.40
2018-06-30T07:11:38.179Z,16.30
2018-06-30T07:14:07.764Z,16.40
2018-06-30T07:16:37.274Z,16.40
2018-06-30T07:19:06.853Z,16.40
2018-06-30T07:21:36.100Z,16.40
2018-06-30T07:24:05.864Z,16.40
2018-06-30T07:26:36.444Z,16.40
2018-06-30T07:29:06.158Z,16.50
2018-06-30T07:31:35.985Z,16.60
2018-06-30T07:34:05.211Z,16.60
2018-06-30T07:36:34.639Z,16.50
2018-06-30T07:39:04.606Z,16.60
2018-06-30T07:41:35.419Z,16.60
2018-06-30T07:44:05.684Z,16.60
2018-06-30T07:46:36.041Z,16.60
2018-06-30T07:49:05.328Z,16.60
2018-06-30T07:51:34.707Z,16.50
2018-06-30T07:54:04.151Z,16.60
2018-06-30T07:56:34.229Z,16.60
2018-06-30T07:59:03.947Z,16.60
2018-06-30T08:01:33.552Z,16.60
2018-06-30T08:04:04.366Z,16.50
2018-06-30T08:06:34.126Z,16.50
2018-06-30T08:09:04.209Z,16.50
2018-06-30T08:11:35.053Z,16.50
2018-06-30T08:14:04.346Z,16.50
2018-06-30T08:16:35.354Z,16.40
2018-06-30T08:19:04.996Z,16.40
2018-06-30T08:21:34.703Z,16.40
2018-06-30T08:24:04.949Z,16.30
2018-06-30T08:26:34.514Z,16.40
2018-06-30T08:29:04.037Z,16.30
2018-06-30T08:31:33.736Z,16.30
2018-06-30T08:34:03.264Z,16.20
2018-06-30T08:36:32.724Z,16.20
2018-06-30T08:39:02.996Z,16.10
2018-06-30T08:41:32.480Z,16.10
2018-06-30T08:44:01.877Z,16.10
2018-06-30T08:46:31.700Z,16.10
2018-06-30T08:49:01.180Z,16.10
2018-06-30T08:51:30.759Z,16.20
2018-06-30T08:54:00.563Z,16.10
2018-06-30T08:56:31.439Z,16.10
2018-06-30T08:59:00.881Z,16.10
2018-06-30T09:01:30.446Z,16.00
2018-06-30T09:03:59.879Z,16.00
2018-06-30T09:06:29.711Z,16.00
2018-06-30T09:08:59.700Z,16.00
2018-06-30T09:11:29.833Z,15.90
2018-06-30T09:14:00.073Z,16.00
2018-06-30T09:16:30.267Z,16.00
2018-06-30T09:19:00.951Z,16.00
2018-06-30T09:21:30.424Z,16.00
2018-06-30T09:24:00.313Z,16.10
2018-06-30T09:26:30.162Z,16.10
2018-06-30T09:28:59.512Z,16.10
2018-06-30T09:31:28.839Z,16.10
2018-06-30T09:33:58.346Z,16.10
2018-06-30T09:36:27.681Z,16.10
2018-06-30T09:38:57.366Z,16.10
2018-06-30T09:41:27.444Z,16.10
2018-06-30T09:43:58.727Z,16.10
2018-06-30T09:46:28.120Z,16.10
2018-06-30T09:48:57.776Z,16.20
2018-06-30T09:51:28.161Z,16.20
2018-06-30T09:53:57.706Z,16.20
2018-06-30T09:56:27.354Z,16.20
2018-06-30T09:58:57.902Z,16.30
2018-06-30T10:01:28.200Z,16.20
2018-06-30T10:03:57.814Z,16.30
2018-06-30T10:06:27.176Z,16.30
2018-06-30T10:08:57.596Z,16.40
2018-06-30T10:11:27.844Z,16.40
2018-06-30T10:13:57.490Z,16.30
2018-06-30T10:16:27.443Z,16.20
2018-06-30T10:18:57.151Z,16.20
2018-06-30T10:21:27.579Z,16.20
2018-06-30T10:23:57.011Z,16.20
2018-06-30T10:26:26.647Z,16.30
2018-06-30T10:28:56.064Z,16.20
2018-06-30T10:31:25.793Z,16.30
2018-06-30T10:33:55.446Z,16.30
2018-06-30T10:36:24.821Z,16.30
2018-06-30T10:38:54.383Z,16.30
2018-06-30T10:41:23.960Z,16.40
2018-06-30T10:43:53.264Z,16.30
2018-06-30T10:46:22.895Z,16.40
2018-06-30T10:48:52.232Z,16.40
2018-06-30T10:51:21.878Z,16.40
2018-06-30T10:53:51.764Z,16.40
2018-06-30T10:56:22.616Z,16.30
2018-06-30T10:58:52.329Z,16.30
2018-06-30T11:01:22.871Z,16.40
2018-06-30T11:03:52.189Z,16.30
2018-06-30T11:06:21.679Z,16.30
2018-06-30T11:08:51.135Z,16.30
2018-06-30T11:11:20.581Z,16.30
2018-06-30T11:13:50.205Z,16.30
2018-06-30T11:16:20.576Z,16.30
2018-06-30T11:18:50.892Z,16.40
2018-06-30T11:21:20.361Z,16.40
2018-06-30T11:23:49.772Z,16.40
2018-06-30T11:26:20.373Z,16.40
2018-06-30T11:28:50.672Z,16.40
2018-06-30T11:31:20.127Z,16.40
2018-06-30T11:33:49.765Z,16.40
2018-06-30T11:36:20.104Z,16.40
2018-06-30T11:38:49.661Z,16.40
2018-06-30T11:41:19.217Z,16.40
2018-06-30T11:43:48.764Z,16.40
2018-06-30T11:46:18.234Z,16.40
2018-06-30T11:48:48.447Z,16.40
2018-06-30T11:51:17.659Z,16.40
2018-06-30T11:53:47.024Z,16.40
2018-06-30T11:56:17.350Z,16.40
2018-06-30T11:58:47.116Z,16.40
2018-06-30T12:01:16.686Z,16.40
2018-06-30T12:03:46.618Z,16.40
2018-06-30T12:06:16.324Z,16.30
2018-06-30T12:08:46.324Z,16.40
2018-06-30T12:11:15.922Z,16.30
2018-06-30T12:13:45.277Z,16.40
2018-06-30T12:16:14.910Z,16.30
2018-06-30T12:18:44.201Z,16.40
2018-06-30T12:21:14.722Z,16.40
2018-06-30T12:23:43.981Z,16.40
2018-06-30T12:26:13.465Z,16.30
2018-06-30T12:28:42.936Z,16.30
2018-06-30T12:31:12.397Z,16.30
2018-06-30T12:33:42.239Z,16.30
2018-06-30T12:36:11.967Z,16.30
2018-06-30T12:38:42.139Z,16.40
2018-06-30T12:41:11.576Z,16.40
2018-06-30T12:43:41.222Z,16.30
2018-06-30T12:46:10.653Z,16.30
2018-06-30T12:48:41.080Z,16.30
2018-06-30T12:51:12.032Z,16.30
2018-06-30T12:53:42.536Z,16.40
2018-06-30T12:56:12.272Z,16.30
2018-06-30T12:58:41.864Z,16.40
2018-06-30T13:01:11.167Z,16.40
2018-06-30T13:03:41.001Z,16.40
2018-06-30T13:06:10.631Z,16.40
2018-06-30T13:08:40.056Z,16.40
2018-06-30T13:11:09.716Z,16.40
2018-06-30T13:13:40.235Z,16.50
2018-06-30T13:16:09.581Z,16.50
2018-06-30T13:18:39.110Z,16.50
2018-06-30T13:21:09.013Z,16.50
2018-06-30T13:23:38.380Z,16.50
2018-06-30T13:26:07.835Z,16.50
2018-06-30T13:28:37.342Z,16.50
2018-06-30T13:31:07.882Z,16.60
2018-06-30T13:33:37.376Z,16.60
2018-06-30T13:36:07.191Z,16.60
2018-06-30T13:38:37.479Z,16.50
2018-06-30T13:41:07.472Z,16.50
2018-06-30T13:43:38.456Z,16.50
2018-06-30T13:46:08.192Z,16.50
2018-06-30T13:48:39.451Z,16.50
2018-06-30T13:51:10.250Z,16.60
2018-06-30T13:53:40.279Z,16.60
2018-06-30T13:56:09.617Z,16.60
2018-06-30T13:58:39.290Z,16.60
2018-06-30T14:01:08.834Z,16.60
2018-06-30T14:03:38.484Z,16.60
2018-06-30T14:06:07.805Z,16.60
2018-06-30T14:08:37.420Z,16.70
2018-06-30T14:11:06.979Z,16.80
2018-06-30T14:13:36.273Z,16.80
2018-06-30T14:16:05.610Z,16.80
2018-06-30T14:18:35.667Z,16.80
2018-06-30T14:21:05.236Z,16.80
2018-06-30T14:23:35.104Z,16.80
2018-06-30T14:26:04.640Z,16.80
2018-06-30T14:28:34.248Z,16.80
2018-06-30T14:31:04.491Z,16.70
2018-06-30T14:33:33.754Z,16.80
2018-06-30T14:36:03.280Z,16.80
2018-06-30T14:38:33.025Z,16.80
2018-06-30T14:41:02.565Z,16.80
2018-06-30T14:43:33.287Z,16.80
2018-06-30T14:46:05.577Z,16.80
2018-06-30T14:48:36.504Z,16.80
2018-06-30T14:51:05.857Z,16.90
2018-06-30T14:53:35.420Z,16.90
2018-06-30T14:56:05.194Z,16.90
2018-06-30T14:58:35.280Z,16.90
2018-06-30T15:01:06.402Z,16.90
2018-06-30T15:03:36.148Z,17.00
2018-06-30T15:06:05.999Z,17.00
2018-06-30T15:08:36.624Z,17.00
2018-06-30T15:11:07.469Z,16.90
2018-06-30T15:13:38.236Z,16.90
2018-06-30T15:16:08.301Z,17.10
2018-06-30T15:18:38.584Z,17.10
2018-06-30T15:21:08.013Z,17.10
2018-06-30T15:23:37.906Z,17.20
2018-06-30T15:26:09.363Z,17.20
2018-06-30T15:28:38.986Z,17.30
2018-06-30T15:31:09.743Z,17.40
2018-06-30T15:33:39.157Z,17.50
2018-06-30T15:36:10.156Z,17.40
2018-06-30T15:38:40.077Z,17.50
2018-06-30T15:41:09.886Z,17.60
2018-06-30T15:43:39.491Z,17.60
2018-06-30T15:46:09.221Z,17.60
2018-06-30T15:48:38.897Z,17.60
2018-06-30T15:51:10.138Z,17.60
2018-06-30T15:53:39.772Z,17.60
2018-06-30T15:56:09.407Z,17.50
2018-06-30T15:58:40.020Z,17.20
2018-06-30T16:01:09.586Z,17.20
2018-06-30T16:03:38.846Z,17.20
2018-06-30T16:06:09.191Z,17.20
2018-06-30T16:08:38.734Z,17.20
2018-06-30T16:11:08.011Z,17.30
2018-06-30T16:13:37.438Z,17.30
2018-06-30T16:16:06.880Z,17.30
2018-06-30T16:18:37.112Z,17.30
2018-06-30T16:21:07.201Z,17.20
2018-06-30T16:23:36.633Z,17.30
2018-06-30T16:26:06.334Z,17.40
2018-06-30T16:28:35.871Z,17.30
2018-06-30T16:31:06.525Z,17.20
2018-06-30T16:33:36.312Z,17.20
2018-06-30T16:36:05.827Z,17.30
2018-06-30T16:38:35.360Z,17.20
2018-06-30T16:41:05.119Z,17.20
2018-06-30T16:43:34.715Z,17.10
2018-06-30T16:46:04.935Z,17.00
2018-06-30T16:48:35.823Z,17.00
2018-06-30T16:51:06.901Z,16.90
2018-06-30T16:53:37.116Z,16.90
2018-06-30T16:56:07.314Z,17.00
2018-06-30T16:58:36.705Z,17.00
2018-06-30T17:01:06.330Z,17.00
2018-06-30T17:03:35.677Z,17.00
2018-06-30T17:06:05.235Z,17.00
2018-06-30T17:08:35.937Z,16.90
2018-06-30T17:11:07.060Z,16.80
2018-06-30T17:13:36.711Z,16.70
2018-06-30T17:16:06.791Z,16.60
2018-06-30T17:18:36.339Z,16.50
2018-06-30T17:21:05.732Z,16.40
2018-06-30T17:23:35.816Z,16.40
2018-06-30T17:26:07.853Z,16.40
2018-06-30T17:28:38.172Z,16.60
2018-06-30T17:31:07.729Z,16.60
2018-06-30T17:33:37.466Z,16.70
2018-06-30T17:36:07.495Z,16.80
2018-06-30T17:38:36.884Z,16.80
2018-06-30T17:41:06.103Z,16.90
2018-06-30T17:43:38.025Z,16.80
2018-06-30T17:46:07.496Z,16.70
2018-06-30T17:48:38.329Z,16.70
2018-06-30T17:51:08.725Z,16.70
2018-06-30T17:53:38.187Z,16.70
2018-06-30T17:56:07.342Z,16.60
2018-06-30T17:58:36.780Z,16.70
2018-06-30T18:01:06.170Z,16.60
2018-06-30T18:03:35.920Z,16.70
2018-06-30T18:06:06.484Z,16.80
2018-06-30T18:08:35.862Z,16.90
2018-06-30T18:11:06.339Z,16.90
2018-06-30T18:13:36.186Z,16.80
2018-06-30T18:16:05.745Z,16.80
2018-06-30T18:18:35.273Z,16.80
2018-06-30T18:21:04.869Z,16.80
2018-06-30T18:23:33.941Z,16.80
2018-06-30T18:26:03.369Z,16.80
2018-06-30T18:28:33.293Z,17.00
2018-06-30T18:31:04.004Z,17.10
2018-06-30T18:33:34.116Z,17.10
2018-06-30T18:36:04.070Z,17.30
2018-06-30T18:38:33.815Z,17.40
2018-06-30T18:41:03.105Z,17.40
2018-06-30T18:43:32.926Z,17.20
2018-06-30T18:46:04.011Z,17.10
2018-06-30T18:48:33.424Z,16.90
2018-06-30T18:51:02.892Z,16.90
2018-06-30T18:53:32.582Z,16.80
2018-06-30T18:56:02.163Z,16.80
2018-06-30T18:58:32.108Z,16.80
2018-06-30T19:01:02.021Z,16.80
2018-06-30T19:03:31.873Z,16.70
2018-06-30T19:06:01.584Z,16.70
2018-06-30T19:08:31.216Z,16.60
2018-06-30T19:11:01.644Z,16.70
2018-06-30T19:13:31.350Z,16.70
2018-06-30T19:16:01.177Z,16.70
2018-06-30T19:18:30.912Z,16.70
2018-06-30T19:21:00.260Z,16.60
2018-06-30T19:23:30.037Z,16.50
2018-06-30T19:25:59.929Z,16.50
2018-06-30T19:28:29.249Z,16.50
2018-06-30T19:30:58.931Z,16.50
2018-06-30T19:33:28.516Z,16.50
2018-06-30T19:35:58.120Z,16.60
2018-06-30T19:38:27.692Z,16.70
2018-06-30T19:40:57.240Z,16.80
2018-06-30T19:43:26.860Z,16.80
2018-06-30T19:45:56.254Z,16.80
2018-06-30T19:48:25.964Z,16.80
2018-06-30T19:50:55.504Z,16.80
2018-06-30T19:53:25.142Z,16.80
2018-06-30T19:55:55.196Z,17.10
2018-06-30T19:58:24.671Z,17.10
2018-06-30T20:00:54.073Z,17.10
2018-06-30T20:03:23.660Z,17.20
2018-06-30T20:05:53.128Z,17.30
2018-06-30T20:08:22.892Z,17.30
2018-06-30T20:10:54.212Z,17.30
2018-06-30T20:13:23.756Z,17.20
2018-06-30T20:15:53.316Z,17.20
2018-06-30T20:18:22.958Z,17.20
2018-06-30T20:20:52.450Z,17.10
2018-06-30T20:23:23.630Z,17.10
2018-06-30T20:25:52.991Z,17.10
2018-06-30T20:28:22.662Z,17.20
2018-06-30T20:30:52.640Z,17.30
2018-06-30T20:33:22.252Z,17.20
2018-06-30T20:35:54.175Z,17.30
2018-06-30T20:38:23.463Z,17.20
2018-06-30T20:40:52.926Z,17.20
2018-06-30T20:43:23.319Z,17.20
2018-06-30T20:45:52.737Z,17.20
2018-06-30T20:48:22.501Z,17.20
2018-06-30T20:50:53.133Z,17.20
2018-06-30T20:53:23.097Z,17.20
2018-06-30T20:55:53.856Z,17.20
2018-06-30T20:58:23.408Z,17.30
2018-06-30T21:00:52.689Z,17.40
2018-06-30T21:03:22.416Z,17.40
2018-06-30T21:05:52.151Z,17.50
2018-06-30T21:08:21.476Z,17.60
2018-06-30T21:10:51.053Z,17.60
2018-06-30T21:13:20.329Z,17.60
2018-06-30T21:15:50.102Z,17.60
2018-06-30T21:18:19.799Z,17.60
2018-06-30T21:20:50.314Z,17.70
2018-06-30T21:23:19.800Z,17.70
2018-06-30T21:25:49.558Z,17.80
2018-06-30T21:28:18.850Z,17.90
2018-06-30T21:30:49.348Z,18.20
2018-06-30T21:33:19.561Z,18.10
2018-06-30T21:35:49.352Z,18.30
2018-06-30T21:38:19.188Z,18.30
2018-06-30T21:40:48.350Z,18.30
2018-06-30T21:43:17.983Z,18.20
2018-06-30T21:45:48.167Z,18.20
2018-06-30T21:48:18.617Z,18.30
2018-06-30T21:50:48.071Z,18.30
2018-06-30T21:53:18.372Z,18.30
2018-06-30T21:55:48.892Z,18.30
2018-06-30T21:58:18.796Z,18.20
2018-06-30T22:00:48.952Z,18.20
2018-06-30T22:03:20.034Z,18.20
2018-06-30T22:05:51.004Z,18.20
2018-06-30T22:08:20.310Z,18.20
2018-06-30T22:10:50.063Z,18.20
2018-06-30T22:13:20.829Z,18.20
2018-06-30T22:15:50.419Z,18.20
2018-06-30T22:18:19.674Z,18.20
2018-06-30T22:20:50.224Z,18.30
2018-06-30T22:23:20.006Z,18.30
2018-06-30T22:25:49.529Z,18.40
2018-06-30T22:28:19.228Z,18.40
2018-06-30T22:30:48.736Z,18.30
2018-06-30T22:33:18.225Z,18.30
2018-06-30T22:35:48.259Z,18.30
2018-06-30T22:38:18.768Z,18.20
2018-06-30T22:40:48.369Z,18.20
2018-06-30T22:43:17.971Z,18.10
2018-06-30T22:45:47.358Z,18.10
2018-06-30T22:48:16.905Z,18.10
2018-06-30T22:50:48.641Z,18.20
2018-06-30T22:53:18.262Z,18.30
2018-06-30T22:55:47.670Z,18.40
2018-06-30T22:58:17.241Z,18.50
2018-06-30T23:00:46.687Z,18.60
2018-06-30T23:03:16.293Z,18.70
2018-06-30T23:05:46.189Z,18.80
2018-06-30T23:08:16.374Z,18.80
2018-06-30T23:10:46.610Z,18.90
2018-06-30T23:13:16.145Z,18.90
2018-06-30T23:15:46.055Z,19.10
2018-06-30T23:18:17.624Z,19.30
2018-06-30T23:20:47.249Z,19.20
2018-06-30T23:23:20.230Z,19.30
2018-06-30T23:25:50.532Z,19.20
2018-06-30T23:28:21.707Z,19.10
2018-06-30T23:30:51.560Z,19.10
2018-06-30T23:33:21.524Z,19.00
2018-06-30T23:35:53.413Z,18.90
2018-06-30T23:38:24.775Z,18.80
2018-06-30T23:40:55.371Z,18.70
2018-06-30T23:43:26.926Z,18.70
2018-06-30T23:45:58.687Z,18.70
2018-06-30T23:48:32.541Z,18.70
2018-06-30T23:51:03.152Z,18.70
2018-06-30T23:53:32.978Z,18.70
2018-06-30T23:56:03.691Z,18.60
2018-06-30T23:58:33.093Z,18.60
